sensor_id;sensor_type;location;lat;lon;timestamp;pressure;altitude;pressure_sealevel;temperature;humidity
3150;BME280;32503;47.748;8.960;2023-01-05T00:01:30;97681.81;;;11.72;71.47
3150;BME280;32503;47.748;8.960;2023-01-05T00:03:57;97685.16;;;11.82;71.10
3150;BME280;32503;47.748;8.960;2023-01-05T00:06:24;97681.81;;;11.72;71.71
3150;BME280;32503;47.748;8.960;2023-01-05T00:08:53;97669.38;;;11.71;71.66
3150;BME280;32503;47.748;8.960;2023-01-05T00:11:22;97667.56;;;11.75;71.33
3150;BME280;32503;47.748;8.960;2023-01-05T00:14:12;97677.25;;;11.76;71.78
3150;BME280;32503;47.748;8.960;2023-01-05T00:16:57;97673.44;;;11.77;71.47
3150;BME280;32503;47.748;8.960;2023-01-05T00:19:41;97677.25;;;11.89;71.56
3150;BME280;32503;47.748;8.960;2023-01-05T00:22:28;97673.41;;;11.90;71.38
3150;BME280;32503;47.748;8.960;2023-01-05T00:25:04;97665.97;;;11.87;71.53
3150;BME280;32503;47.748;8.960;2023-01-05T00:27:32;97671.63;;;11.94;71.22
3150;BME280;32503;47.748;8.960;2023-01-05T00:30:00;97672.75;;;11.93;70.85
3150;BME280;32503;47.748;8.960;2023-01-05T00:32:27;97662.38;;;11.95;71.09
3150;BME280;32503;47.748;8.960;2023-01-05T00:34:55;97658.50;;;11.96;71.02
3150;BME280;32503;47.748;8.960;2023-01-05T00:37:25;97647.88;;;12.03;70.90
3150;BME280;32503;47.748;8.960;2023-01-05T00:39:52;97646.75;;;12.04;70.51
3150;BME280;32503;47.748;8.960;2023-01-05T00:42:21;97647.88;;;12.03;70.65
3150;BME280;32503;47.748;8.960;2023-01-05T00:44:48;97644.22;;;12.11;70.78
3150;BME280;32503;47.748;8.960;2023-01-05T00:47:15;97640.31;;;12.09;70.86
3150;BME280;32503;47.748;8.960;2023-01-05T00:49:43;97638.03;;;12.11;70.44
3150;BME280;32503;47.748;8.960;2023-01-05T00:52:10;97628.13;;;12.03;70.61
3150;BME280;32503;47.748;8.960;2023-01-05T00:54:37;97634.97;;;12.12;70.72
3150;BME280;32503;47.748;8.960;2023-01-05T00:57:04;97626.47;;;12.14;70.09
3150;BME280;32503;47.748;8.960;2023-01-05T00:59:33;97625.69;;;12.13;69.95
3150;BME280;32503;47.748;8.960;2023-01-05T01:02:00;97621.44;;;12.12;70.19
3150;BME280;32503;47.748;8.960;2023-01-05T01:04:29;97628.75;;;12.12;70.20
3150;BME280;32503;47.748;8.960;2023-01-05T01:06:57;97627.28;;;12.14;69.82
3150;BME280;32503;47.748;8.960;2023-01-05T01:09:24;97635.41;;;12.14;70.12
3150;BME280;32503;47.748;8.960;2023-01-05T01:11:51;97635.84;;;12.17;70.32
3150;BME280;32503;47.748;8.960;2023-01-05T01:14:18;97629.09;;;12.10;70.42
3150;BME280;32503;47.748;8.960;2023-01-05T01:16:46;97626.13;;;12.16;69.84
3150;BME280;32503;47.748;8.960;2023-01-05T01:19:15;97631.66;;;12.19;70.55
3150;BME280;32503;47.748;8.960;2023-01-05T01:21:45;97623.41;;;12.16;70.33
3150;BME280;32503;47.748;8.960;2023-01-05T01:24:16;97628.16;;;12.19;70.10
3150;BME280;32503;47.748;8.960;2023-01-05T01:26:43;97623.88;;;12.18;70.49
3150;BME280;32503;47.748;8.960;2023-01-05T01:29:10;97627.72;;;12.17;70.38
3150;BME280;32503;47.748;8.960;2023-01-05T01:31:37;97643.66;;;12.18;69.74
3150;BME280;32503;47.748;8.960;2023-01-05T01:34:06;97641.88;;;12.10;70.98
3150;BME280;32503;47.748;8.960;2023-01-05T01:36:33;97643.16;;;12.00;70.83
3150;BME280;32503;47.748;8.960;2023-01-05T01:39:00;97644.47;;;12.06;71.01
3150;BME280;32503;47.748;8.960;2023-01-05T01:41:28;97638.72;;;12.08;70.56
3150;BME280;32503;47.748;8.960;2023-01-05T01:43:56;97643.22;;;12.16;70.70
3150;BME280;32503;47.748;8.960;2023-01-05T01:46:25;97641.09;;;12.09;71.54
3150;BME280;32503;47.748;8.960;2023-01-05T01:48:56;97643.09;;;12.12;71.50
3150;BME280;32503;47.748;8.960;2023-01-05T01:51:31;97627.34;;;12.02;72.27
3150;BME280;32503;47.748;8.960;2023-01-05T01:54:03;97635.22;;;12.07;72.12
3150;BME280;32503;47.748;8.960;2023-01-05T01:56:36;97639.94;;;12.10;71.98
3150;BME280;32503;47.748;8.960;2023-01-05T01:59:04;97638.13;;;12.14;72.14
3150;BME280;32503;47.748;8.960;2023-01-05T02:01:32;97630.16;;;12.06;72.85
3150;BME280;32503;47.748;8.960;2023-01-05T02:04:00;97641.09;;;12.09;72.64
3150;BME280;32503;47.748;8.960;2023-01-05T02:06:29;97635.22;;;12.07;72.60
3150;BME280;32503;47.748;8.960;2023-01-05T02:08:56;97633.19;;;12.04;72.76
3150;BME280;32503;47.748;8.960;2023-01-05T02:11:39;97623.72;;;11.98;72.86
3150;BME280;32503;47.748;8.960;2023-01-05T02:14:25;97614.47;;;11.87;73.10
3150;BME280;32503;47.748;8.960;2023-01-05T02:17:11;97609.97;;;11.91;72.80
3150;BME280;32503;47.748;8.960;2023-01-05T02:20:23;97598.00;;;11.92;72.49
3150;BME280;32503;47.748;8.960;2023-01-05T02:23:26;97610.19;;;11.86;72.97
3150;BME280;32503;47.748;8.960;2023-01-05T02:26:32;97605.47;;;11.83;73.56
3150;BME280;32503;47.748;8.960;2023-01-05T02:32:14;97612.88;;;11.86;72.82
3150;BME280;32503;47.748;8.960;2023-01-05T02:34:54;97607.84;;;11.84;72.99
3150;BME280;32503;47.748;8.960;2023-01-05T02:37:29;97601.63;;;11.84;73.31
3150;BME280;32503;47.748;8.960;2023-01-05T02:40:03;97595.56;;;11.74;73.69
3150;BME280;32503;47.748;8.960;2023-01-05T02:42:33;97602.09;;;11.73;73.93
3150;BME280;32503;47.748;8.960;2023-01-05T02:45:03;97588.22;;;11.75;73.70
3150;BME280;32503;47.748;8.960;2023-01-05T02:47:40;97591.72;;;11.75;74.06
3150;BME280;32503;47.748;8.960;2023-01-05T02:50:14;97600.53;;;11.72;73.99
3150;BME280;32503;47.748;8.960;2023-01-05T02:52:49;97605.22;;;11.60;74.05
3150;BME280;32503;47.748;8.960;2023-01-05T02:55:23;97590.19;;;11.62;73.96
3150;BME280;32503;47.748;8.960;2023-01-05T02:57:56;97596.03;;;11.64;74.80
3150;BME280;32503;47.748;8.960;2023-01-05T03:00:28;97597.22;;;11.51;74.85
3150;BME280;32503;47.748;8.960;2023-01-05T03:03:04;97598.34;;;11.50;75.32
3150;BME280;32503;47.748;8.960;2023-01-05T03:05:37;97595.38;;;11.55;75.19
3150;BME280;32503;47.748;8.960;2023-01-05T03:08:07;97589.28;;;11.58;74.56
3150;BME280;32503;47.748;8.960;2023-01-05T03:10:58;97595.28;;;11.51;75.64
3150;BME280;32503;47.748;8.960;2023-01-05T03:13:47;97594.59;;;11.54;75.54
3150;BME280;32503;47.748;8.960;2023-01-05T03:16:20;97588.38;;;11.54;75.59
3150;BME280;32503;47.748;8.960;2023-01-05T03:18:51;97582.09;;;11.50;75.34
3150;BME280;32503;47.748;8.960;2023-01-05T03:21:37;97592.25;;;11.53;75.73
3150;BME280;32503;47.748;8.960;2023-01-05T03:24:22;97567.00;;;11.49;75.50
3150;BME280;32503;47.748;8.960;2023-01-05T03:27:07;97586.94;;;11.56;75.42
3150;BME280;32503;47.748;8.960;2023-01-05T03:29:52;97571.00;;;11.55;75.49
3150;BME280;32503;47.748;8.960;2023-01-05T03:32:46;97566.38;;;11.55;75.69
3150;BME280;32503;47.748;8.960;2023-01-05T03:35:39;97571.25;;;11.50;75.73
3150;BME280;32503;47.748;8.960;2023-01-05T03:38:13;97570.38;;;11.46;76.04
3150;BME280;32503;47.748;8.960;2023-01-05T03:40:43;97561.91;;;11.47;75.98
3150;BME280;32503;47.748;8.960;2023-01-05T03:43:11;97562.34;;;11.49;75.17
3150;BME280;32503;47.748;8.960;2023-01-05T03:45:42;97558.34;;;11.59;75.68
3150;BME280;32503;47.748;8.960;2023-01-05T03:48:10;97564.03;;;11.42;76.05
3150;BME280;32503;47.748;8.960;2023-01-05T03:50:39;97567.88;;;11.53;75.13
3150;BME280;32503;47.748;8.960;2023-01-05T03:53:06;97548.94;;;11.41;75.89
3150;BME280;32503;47.748;8.960;2023-01-05T03:55:33;97553.88;;;11.51;75.23
3150;BME280;32503;47.748;8.960;2023-01-05T03:58:00;97551.84;;;11.48;76.08
3150;BME280;32503;47.748;8.960;2023-01-05T04:00:27;97550.38;;;11.50;76.08
3150;BME280;32503;47.748;8.960;2023-01-05T04:02:54;97564.47;;;11.56;75.54
3150;BME280;32503;47.748;8.960;2023-01-05T04:05:21;97548.72;;;11.46;76.05
3150;BME280;32503;47.748;8.960;2023-01-05T04:07:50;97549.34;;;11.55;75.27
3150;BME280;32503;47.748;8.960;2023-01-05T04:10:17;97544.38;;;11.57;75.90
3150;BME280;32503;47.748;8.960;2023-01-05T04:12:44;97532.00;;;11.56;75.23
3150;BME280;32503;47.748;8.960;2023-01-05T04:15:12;97541.91;;;11.52;75.78
3150;BME280;32503;47.748;8.960;2023-01-05T04:17:39;97536.41;;;11.48;75.55
3150;BME280;32503;47.748;8.960;2023-01-05T04:20:08;97543.41;;;11.49;76.28
3150;BME280;32503;47.748;8.960;2023-01-05T04:22:35;97533.25;;;11.46;76.21
3150;BME280;32503;47.748;8.960;2023-01-05T04:25:04;97528.50;;;11.43;76.59
3150;BME280;32503;47.748;8.960;2023-01-05T04:27:32;97535.63;;;11.48;76.58
3150;BME280;32503;47.748;8.960;2023-01-05T04:29:59;97542.16;;;11.47;77.09
3150;BME280;32503;47.748;8.960;2023-01-05T04:32:26;97540.16;;;11.44;77.39
3150;BME280;32503;47.748;8.960;2023-01-05T04:34:53;97540.25;;;11.47;76.88
3150;BME280;32503;47.748;8.960;2023-01-05T04:37:20;97539.91;;;11.49;77.16
3150;BME280;32503;47.748;8.960;2023-01-05T04:39:47;97542.38;;;11.42;77.08
3150;BME280;32503;47.748;8.960;2023-01-05T04:42:16;97536.19;;;11.41;77.22
3150;BME280;32503;47.748;8.960;2023-01-05T04:44:43;97531.66;;;11.45;77.86
3150;BME280;32503;47.748;8.960;2023-01-05T04:47:10;97533.72;;;11.36;78.04
3150;BME280;32503;47.748;8.960;2023-01-05T04:49:37;97535.06;;;11.42;77.19
3150;BME280;32503;47.748;8.960;2023-01-05T04:52:04;97539.94;;;11.36;77.65
3150;BME280;32503;47.748;8.960;2023-01-05T04:54:32;97536.19;;;11.41;77.42
3150;BME280;32503;47.748;8.960;2023-01-05T04:56:59;97532.91;;;11.48;77.09
3150;BME280;32503;47.748;8.960;2023-01-05T04:59:30;97537.97;;;11.49;77.86
3150;BME280;32503;47.748;8.960;2023-01-05T05:01:57;97538.56;;;11.43;77.25
3150;BME280;32503;47.748;8.960;2023-01-05T05:04:24;97542.84;;;11.44;77.74
3150;BME280;32503;47.748;8.960;2023-01-05T05:06:51;97559.19;;;11.47;78.17
3150;BME280;32503;47.748;8.960;2023-01-05T05:09:18;97546.78;;;11.46;78.11
3150;BME280;32503;47.748;8.960;2023-01-05T05:11:45;97558.63;;;11.42;77.66
3150;BME280;32503;47.748;8.960;2023-01-05T05:14:12;97562.16;;;11.42;78.20
3150;BME280;32503;47.748;8.960;2023-01-05T05:16:40;97556.59;;;11.51;77.50
3150;BME280;32503;47.748;8.960;2023-01-05T05:19:08;97550.41;;;11.38;77.98
3150;BME280;32503;47.748;8.960;2023-01-05T05:21:35;97571.72;;;11.39;78.85
3150;BME280;32503;47.748;8.960;2023-01-05T05:24:03;97578.25;;;11.51;77.84
3150;BME280;32503;47.748;8.960;2023-01-05T05:26:30;97575.09;;;11.49;77.86
3150;BME280;32503;47.748;8.960;2023-01-05T05:28:58;97560.66;;;11.45;78.44
3150;BME280;32503;47.748;8.960;2023-01-05T05:31:25;97558.41;;;11.47;78.24
3150;BME280;32503;47.748;8.960;2023-01-05T05:33:54;97565.84;;;11.50;77.77
3150;BME280;32503;47.748;8.960;2023-01-05T05:36:21;97561.91;;;11.47;77.78
3150;BME280;32503;47.748;8.960;2023-01-05T05:38:48;97566.50;;;11.47;77.60
3150;BME280;32503;47.748;8.960;2023-01-05T05:41:15;97555.00;;;11.50;77.37
3150;BME280;32503;47.748;8.960;2023-01-05T05:43:42;97556.59;;;11.51;77.55
3150;BME280;32503;47.748;8.960;2023-01-05T05:46:09;97568.09;;;11.48;77.03
3150;BME280;32503;47.748;8.960;2023-01-05T05:48:36;97578.50;;;11.46;77.59
3150;BME280;32503;47.748;8.960;2023-01-05T05:51:04;97581.78;;;11.39;77.70
3150;BME280;32503;47.748;8.960;2023-01-05T05:53:32;97576.94;;;11.32;77.97
3150;BME280;32503;47.748;8.960;2023-01-05T05:55:59;97570.84;;;11.35;78.29
3150;BME280;32503;47.748;8.960;2023-01-05T05:58:26;97576.94;;;11.32;78.30
3150;BME280;32503;47.748;8.960;2023-01-05T06:00:56;97576.25;;;11.35;77.62
3150;BME280;32503;47.748;8.960;2023-01-05T06:03:24;97567.13;;;11.40;77.62
3150;BME280;32503;47.748;8.960;2023-01-05T06:05:51;97565.69;;;11.18;77.99
3150;BME280;32503;47.748;8.960;2023-01-05T06:08:20;97563.41;;;11.32;77.66
3150;BME280;32503;47.748;8.960;2023-01-05T06:10:49;97573.78;;;11.30;77.88
3150;BME280;32503;47.748;8.960;2023-01-05T06:13:16;97581.56;;;11.32;77.40
3150;BME280;32503;47.748;8.960;2023-01-05T06:15:43;97576.25;;;11.35;77.80
3150;BME280;32503;47.748;8.960;2023-01-05T06:18:11;97580.06;;;11.34;77.09
3150;BME280;32503;47.748;8.960;2023-01-05T06:20:38;97570.66;;;11.16;77.95
3150;BME280;32503;47.748;8.960;2023-01-05T06:23:06;97577.59;;;11.29;77.55
3150;BME280;32503;47.748;8.960;2023-01-05T06:25:34;97577.03;;;11.36;78.02
3150;BME280;32503;47.748;8.960;2023-01-05T06:28:01;97589.78;;;11.35;77.45
3150;BME280;32503;47.748;8.960;2023-01-05T06:30:29;97587.53;;;11.37;77.51
3150;BME280;32503;47.748;8.960;2023-01-05T06:32:56;97590.56;;;11.36;77.27
3150;BME280;32503;47.748;8.960;2023-01-05T06:35:23;97597.34;;;11.42;77.51
3150;BME280;32503;47.748;8.960;2023-01-05T06:37:50;97591.22;;;11.45;77.47
3150;BME280;32503;47.748;8.960;2023-01-05T06:40:17;97607.00;;;11.55;77.22
3150;BME280;32503;47.748;8.960;2023-01-05T06:42:46;97605.22;;;11.47;77.53
3150;BME280;32503;47.748;8.960;2023-01-05T06:45:14;97607.09;;;11.59;77.26
3150;BME280;32503;47.748;8.960;2023-01-05T06:47:42;97602.41;;;11.56;76.78
3150;BME280;32503;47.748;8.960;2023-01-05T06:50:10;97605.78;;;11.53;76.70
3150;BME280;32503;47.748;8.960;2023-01-05T06:52:37;97610.75;;;11.51;77.49
3150;BME280;32503;47.748;8.960;2023-01-05T06:55:06;97616.81;;;11.60;76.77
3150;BME280;32503;47.748;8.960;2023-01-05T06:57:33;97620.41;;;11.64;76.55
3150;BME280;32503;47.748;8.960;2023-01-05T07:00:05;97621.09;;;11.61;76.54
3150;BME280;32503;47.748;8.960;2023-01-05T07:02:33;97625.03;;;11.64;76.28
3150;BME280;32503;47.748;8.960;2023-01-05T07:05:00;97624.47;;;11.70;76.05
3150;BME280;32503;47.748;8.960;2023-01-05T07:07:27;97622.69;;;11.62;76.55
3150;BME280;32503;47.748;8.960;2023-01-05T07:09:54;97635.97;;;11.67;76.38
3150;BME280;32503;47.748;8.960;2023-01-05T07:12:21;97628.97;;;11.66;76.03
3150;BME280;32503;47.748;8.960;2023-01-05T07:14:48;97648.75;;;11.67;76.82
3150;BME280;32503;47.748;8.960;2023-01-05T07:17:17;97645.09;;;11.75;76.50
3150;BME280;32503;47.748;8.960;2023-01-05T07:19:44;97638.47;;;11.72;76.14
3150;BME280;32503;47.748;8.960;2023-01-05T07:22:11;97632.59;;;11.70;76.38
3150;BME280;32503;47.748;8.960;2023-01-05T07:24:38;97638.22;;;11.77;75.92
3150;BME280;32503;47.748;8.960;2023-01-05T07:27:05;97641.03;;;11.81;76.00
3150;BME280;32503;47.748;8.960;2023-01-05T07:29:33;97641.13;;;11.85;75.68
3150;BME280;32503;47.748;8.960;2023-01-05T07:32:00;97634.84;;;11.81;76.13
3150;BME280;32503;47.748;8.960;2023-01-05T07:34:28;97635.94;;;11.80;75.64
3150;BME280;32503;47.748;8.960;2023-01-05T07:36:55;97647.13;;;11.78;75.50
3150;BME280;32503;47.748;8.960;2023-01-05T07:39:22;97651.75;;;11.77;75.40
3150;BME280;32503;47.748;8.960;2023-01-05T07:41:50;97656.03;;;11.79;75.59
3150;BME280;32503;47.748;8.960;2023-01-05T07:44:17;97654.25;;;11.83;75.51
3150;BME280;32503;47.748;8.960;2023-01-05T07:46:44;97641.56;;;11.87;75.57
3150;BME280;32503;47.748;8.960;2023-01-05T07:49:11;97651.72;;;11.90;75.82
3150;BME280;32503;47.748;8.960;2023-01-05T07:51:39;97641.91;;;11.85;75.72
3150;BME280;32503;47.748;8.960;2023-01-05T07:54:06;97650.38;;;11.96;75.15
3150;BME280;32503;47.748;8.960;2023-01-05T07:56:34;97649.16;;;11.93;75.35
3150;BME280;32503;47.748;8.960;2023-01-05T07:59:01;97653.28;;;12.03;74.74
3150;BME280;32503;47.748;8.960;2023-01-05T08:01:28;97666.41;;;12.01;74.48
3150;BME280;32503;47.748;8.960;2023-01-05T08:03:55;97672.50;;;11.98;74.34
3150;BME280;32503;47.748;8.960;2023-01-05T08:06:23;97683.09;;;12.03;74.90
3150;BME280;32503;47.748;8.960;2023-01-05T08:08:51;97656.72;;;12.00;74.80
3150;BME280;32503;47.748;8.960;2023-01-05T08:11:18;97673.16;;;12.07;74.46
3150;BME280;32503;47.748;8.960;2023-01-05T08:13:46;97677.34;;;12.05;74.13
3150;BME280;32503;47.748;8.960;2023-01-05T08:16:29;97687.34;;;12.17;74.29
3150;BME280;32503;47.748;8.960;2023-01-05T08:18:57;97682.19;;;12.11;74.63
3150;BME280;32503;47.748;8.960;2023-01-05T08:21:24;97698.44;;;12.11;74.52
3150;BME280;32503;47.748;8.960;2023-01-05T08:23:53;97700.03;;;12.12;74.75
3150;BME280;32503;47.748;8.960;2023-01-05T08:26:22;97702.13;;;12.19;74.65
3150;BME280;32503;47.748;8.960;2023-01-05T08:28:50;97698.00;;;12.09;74.58
3150;BME280;32503;47.748;8.960;2023-01-05T08:31:20;97709.47;;;12.19;74.58
3150;BME280;32503;47.748;8.960;2023-01-05T08:33:47;97707.56;;;12.19;74.57
3150;BME280;32503;47.748;8.960;2023-01-05T08:36:17;97702.22;;;12.23;74.40
3150;BME280;32503;47.748;8.960;2023-01-05T08:38:45;97711.16;;;12.23;74.39
3150;BME280;32503;47.748;8.960;2023-01-05T08:41:17;97711.31;;;12.14;74.07
3150;BME280;32503;47.748;8.960;2023-01-05T08:43:49;97709.91;;;12.21;74.52
3150;BME280;32503;47.748;8.960;2023-01-05T08:46:19;97715.88;;;12.26;74.14
3150;BME280;32503;47.748;8.960;2023-01-05T08:48:51;97723.56;;;12.24;73.89
3150;BME280;32503;47.748;8.960;2023-01-05T08:51:18;97715.09;;;12.26;74.10
3150;BME280;32503;47.748;8.960;2023-01-05T08:53:46;97724.38;;;12.25;74.21
3150;BME280;32503;47.748;8.960;2023-01-05T08:56:14;97717.38;;;12.24;74.10
3150;BME280;32503;47.748;8.960;2023-01-05T08:58:42;97710.84;;;12.25;74.39
3150;BME280;32503;47.748;8.960;2023-01-05T09:01:13;97713.44;;;12.21;73.99
3150;BME280;32503;47.748;8.960;2023-01-05T09:03:41;97710.84;;;12.25;74.18
3150;BME280;32503;47.748;8.960;2023-01-05T09:06:09;97724.78;;;12.39;74.17
3150;BME280;32503;47.748;8.960;2023-01-05T09:08:39;97724.13;;;12.30;74.55
3150;BME280;32503;47.748;8.960;2023-01-05T09:11:07;97725.28;;;12.29;74.46
3150;BME280;32503;47.748;8.960;2023-01-05T09:13:35;97725.56;;;12.40;74.82
3150;BME280;32503;47.748;8.960;2023-01-05T09:16:10;97717.44;;;12.40;74.53
3150;BME280;32503;47.748;8.960;2023-01-05T09:18:38;97729.97;;;12.44;74.19
3150;BME280;32503;47.748;8.960;2023-01-05T09:21:06;97724.34;;;12.37;74.21
3150;BME280;32503;47.748;8.960;2023-01-05T09:23:34;97730.56;;;12.38;74.01
3150;BME280;32503;47.748;8.960;2023-01-05T09:26:03;97725.28;;;12.29;73.93
3150;BME280;32503;47.748;8.960;2023-01-05T09:28:30;97737.63;;;12.42;73.99
3150;BME280;32503;47.748;8.960;2023-01-05T09:30:58;97739.22;;;12.43;73.83
3150;BME280;32503;47.748;8.960;2023-01-05T09:33:26;97743.72;;;12.51;73.68
3150;BME280;32503;47.748;8.960;2023-01-05T09:35:54;97739.19;;;12.56;73.22
3150;BME280;32503;47.748;8.960;2023-01-05T09:38:21;97742.13;;;12.50;73.29
3150;BME280;32503;47.748;8.960;2023-01-05T09:40:52;97744.31;;;12.45;73.72
3150;BME280;32503;47.748;8.960;2023-01-05T09:43:25;97733.38;;;12.41;73.21
3150;BME280;32503;47.748;8.960;2023-01-05T09:45:54;97742.91;;;12.51;73.12
3150;BME280;32503;47.748;8.960;2023-01-05T09:48:25;97742.31;;;12.58;73.14
3150;BME280;32503;47.748;8.960;2023-01-05T09:50:54;97741.66;;;12.61;72.94
3150;BME280;32503;47.748;8.960;2023-01-05T09:53:27;97751.09;;;12.67;72.88
3150;BME280;32503;47.748;8.960;2023-01-05T09:55:55;97742.72;;;12.72;72.74
3150;BME280;32503;47.748;8.960;2023-01-05T09:58:26;97759.56;;;12.78;72.24
3150;BME280;32503;47.748;8.960;2023-01-05T10:01:06;97749.13;;;12.80;71.83
3150;BME280;32503;47.748;8.960;2023-01-05T10:03:40;97727.59;;;12.71;71.56
3150;BME280;32503;47.748;8.960;2023-01-05T10:06:12;97747.38;;;12.87;72.04
3150;BME280;32503;47.748;8.960;2023-01-05T10:08:43;97726.00;;;12.70;71.86
3150;BME280;32503;47.748;8.960;2023-01-05T10:11:14;97744.00;;;12.90;71.75
3150;BME280;32503;47.748;8.960;2023-01-05T10:14:08;97744.69;;;12.87;71.66
3150;BME280;32503;47.748;8.960;2023-01-05T10:16:42;97748.63;;;12.90;71.50
3150;BME280;32503;47.748;8.960;2023-01-05T10:19:13;97744.59;;;12.84;71.87
3150;BME280;32503;47.748;8.960;2023-01-05T10:21:51;97722.97;;;12.87;71.83
3150;BME280;32503;47.748;8.960;2023-01-05T10:24:32;97727.88;;;12.98;72.39
3150;BME280;32503;47.748;8.960;2023-01-05T10:27:07;97731.81;;;13.00;71.80
3150;BME280;32503;47.748;8.960;2023-01-05T10:29:42;97724.75;;;12.96;71.51
3150;BME280;32503;47.748;8.960;2023-01-05T10:32:21;97730.00;;;13.04;71.63
3150;BME280;32503;47.748;8.960;2023-01-05T10:34:56;97742.44;;;13.21;71.25
3150;BME280;32503;47.748;8.960;2023-01-05T10:37:51;97734.28;;;13.21;71.00
3150;BME280;32503;47.748;8.960;2023-01-05T10:40:32;97736.06;;;13.30;70.98
3150;BME280;32503;47.748;8.960;2023-01-05T10:43:18;97728.03;;;13.33;70.61
3150;BME280;32503;47.748;8.960;2023-01-05T10:45:49;97738.00;;;13.45;70.18
3150;BME280;32503;47.748;8.960;2023-01-05T10:48:23;97729.69;;;13.54;69.90
3150;BME280;32503;47.748;8.960;2023-01-05T10:50:54;97723.16;;;13.58;69.38
3150;BME280;32503;47.748;8.960;2023-01-05T10:53:25;97733.78;;;13.63;69.43
3150;BME280;32503;47.748;8.960;2023-01-05T10:55:59;97733.84;;;13.67;69.13
3150;BME280;32503;47.748;8.960;2023-01-05T10:58:30;97746.13;;;13.77;68.74
3150;BME280;32503;47.748;8.960;2023-01-05T11:01:01;97736.50;;;13.63;68.91
3150;BME280;32503;47.748;8.960;2023-01-05T11:03:36;97747.44;;;13.67;68.45
3150;BME280;32503;47.748;8.960;2023-01-05T11:06:07;97739.38;;;13.71;68.56
3150;BME280;32503;47.748;8.960;2023-01-05T11:08:35;97745.97;;;13.70;68.51
3150;BME280;32503;47.748;8.960;2023-01-05T11:11:04;97738.31;;;13.75;68.50
3150;BME280;32503;47.748;8.960;2023-01-05T11:13:35;97724.38;;;13.77;68.33
3150;BME280;32503;47.748;8.960;2023-01-05T11:16:08;97694.59;;;13.64;67.61
3150;BME280;32503;47.748;8.960;2023-01-05T11:18:46;97694.59;;;13.64;67.03
3150;BME280;32503;47.748;8.960;2023-01-05T11:21:19;97680.91;;;13.77;66.41
3150;BME280;32503;47.748;8.960;2023-01-05T11:23:53;97713.69;;;14.03;66.36
3150;BME280;32503;47.748;8.960;2023-01-05T11:26:47;97705.84;;;14.18;66.30
3150;BME280;32503;47.748;8.960;2023-01-05T11:29:15;97716.22;;;14.51;65.54
3150;BME280;32503;47.748;8.960;2023-01-05T11:31:51;97703.63;;;14.63;64.85
3150;BME280;32503;47.748;8.960;2023-01-05T11:34:30;97722.16;;;14.76;64.32
3150;BME280;32503;47.748;8.960;2023-01-05T11:37:02;97709.84;;;14.83;64.30
3150;BME280;32503;47.748;8.960;2023-01-05T11:39:33;97728.28;;;14.93;63.71
3150;BME280;32503;47.748;8.960;2023-01-05T11:42:17;97700.91;;;14.86;63.45
3150;BME280;32503;47.748;8.960;2023-01-05T11:44:49;97702.63;;;14.94;62.81
3150;BME280;32503;47.748;8.960;2023-01-05T11:47:24;97713.47;;;15.13;62.85
3150;BME280;32503;47.748;8.960;2023-01-05T11:50:02;97710.88;;;15.21;62.31
3150;BME280;32503;47.748;8.960;2023-01-05T11:52:37;97711.59;;;15.17;61.87
3150;BME280;32503;47.748;8.960;2023-01-05T11:55:33;97712.75;;;15.16;61.29
3150;BME280;32503;47.748;8.960;2023-01-05T11:58:22;97710.03;;;15.16;61.48
3150;BME280;32503;47.748;8.960;2023-01-05T12:01:45;97713.75;;;15.08;61.08
3150;BME280;32503;47.748;8.960;2023-01-05T12:04:32;97702.88;;;15.08;60.77
3150;BME280;32503;47.748;8.960;2023-01-05T12:07:16;97685.69;;;15.04;nan
3150;BME280;32503;47.748;8.960;2023-01-05T12:09:52;97699.13;;;15.16;61.02
3150;BME280;32503;47.748;8.960;2023-01-05T12:12:34;97707.06;;;15.25;60.58
3150;BME280;32503;47.748;8.960;2023-01-05T12:15:38;97697.81;;;15.33;59.95
3150;BME280;32503;47.748;8.960;2023-01-05T12:18:28;97693.13;;;15.30;59.77
3150;BME280;32503;47.748;8.960;2023-01-05T12:21:05;97689.50;;;15.23;59.62
3150;BME280;32503;47.748;8.960;2023-01-05T12:24:05;97704.28;;;15.22;60.20
3150;BME280;32503;47.748;8.960;2023-01-05T12:26:48;97693.69;;;15.16;60.03
3150;BME280;32503;47.748;8.960;2023-01-05T12:29:50;97709.13;;;15.09;60.49
3150;BME280;32503;47.748;8.960;2023-01-05T12:32:47;97712.16;;;15.04;61.00
3150;BME280;32503;47.748;8.960;2023-01-05T12:35:43;97712.94;;;15.04;60.71
3150;BME280;32503;47.748;8.960;2023-01-05T12:38:28;97690.72;;;14.79;61.07
3150;BME280;32503;47.748;8.960;2023-01-05T12:41:22;97709.53;;;14.88;61.59
3150;BME280;32503;47.748;8.960;2023-01-05T12:44:09;97709.66;;;14.95;61.64
3150;BME280;32503;47.748;8.960;2023-01-05T12:46:53;97704.22;;;14.95;61.78
3150;BME280;32503;47.748;8.960;2023-01-05T12:49:30;97710.16;;;15.01;62.04
3150;BME280;32503;47.748;8.960;2023-01-05T12:52:05;97681.09;;;14.85;62.29
3150;BME280;32503;47.748;8.960;2023-01-05T12:54:40;97705.06;;;14.99;62.30
3150;BME280;32503;47.748;8.960;2023-01-05T12:57:14;97696.53;;;15.01;62.55
3150;BME280;32503;47.748;8.960;2023-01-05T12:59:55;97704.34;;;15.02;62.48
3150;BME280;32503;47.748;8.960;2023-01-05T13:02:33;97687.69;;;14.84;62.46
3150;BME280;32503;47.748;8.960;2023-01-05T13:05:08;97704.03;;;14.84;62.69
3150;BME280;32503;47.748;8.960;2023-01-05T13:07:47;97706.97;;;14.75;63.64
3150;BME280;32503;47.748;8.960;2023-01-05T13:10:21;97710.34;;;14.69;63.56
3150;BME280;32503;47.748;8.960;2023-01-05T13:12:55;97701.63;;;14.59;63.97
3150;BME280;32503;47.748;8.960;2023-01-05T13:15:29;97708.63;;;14.60;63.79
3150;BME280;32503;47.748;8.960;2023-01-05T13:17:59;97712.88;;;14.58;64.64
3150;BME280;32503;47.748;8.960;2023-01-05T13:20:34;97713.91;;;14.53;64.77
3150;BME280;32503;47.748;8.960;2023-01-05T13:23:10;97714.91;;;14.45;65.23
3150;BME280;32503;47.748;8.960;2023-01-05T13:25:48;97714.06;;;14.41;65.76
3150;BME280;32503;47.748;8.960;2023-01-05T13:28:20;97719.84;;;14.39;65.86
3150;BME280;32503;47.748;8.960;2023-01-05T13:31:08;97716.84;;;14.45;65.49
3150;BME280;32503;47.748;8.960;2023-01-05T13:34:17;97709.84;;;14.44;65.73
3150;BME280;32503;47.748;8.960;2023-01-05T13:37:19;97711.00;;;14.43;65.46
3150;BME280;32503;47.748;8.960;2023-01-05T13:40:17;97710.63;;;14.44;65.60
3150;BME280;32503;47.748;8.960;2023-01-05T13:43:10;97704.03;;;14.45;65.40